sensor_id;sensor_type;location;lat;lon;timestamp;pressure;altitude;pressure_sealevel;temperature;humidity
44992;BME280;56865;51.618;7.406;2023-04-25T03:20:11;100222.41;;;22.10;85.26
44992;BME280;56865;51.618;7.406;2023-04-25T03:22:41;100228.13;;;22.52;85.33
44992;BME280;56865;51.618;7.406;2023-04-25T03:25:11;100233.94;;;21.99;83.44
44992;BME280;56865;51.618;7.406;2023-04-25T03:27:40;100230.28;;;22.06;84.55
44992;BME280;56865;51.618;7.406;2023-04-25T03:30:10;100227.53;;;22.11;84.52
44992;BME280;56865;51.618;7.406;2023-04-25T03:32:40;100239.94;;;22.01;84.79
44992;BME280;56865;51.618;7.406;2023-04-25T03:35:12;100238.31;;;21.97;83.81
44992;BME280;56865;51.618;7.406;2023-04-25T03:37:42;100239.91;;;21.70;84.25
44992;BME280;56865;51.618;7.406;2023-04-25T03:40:13;100236.44;;;22.02;85.32
44992;BME280;56865;51.618;7.406;2023-04-25T03:42:42;100235.81;;;21.94;84.33
44992;BME280;56865;51.618;7.406;2023-04-25T03:45:12;100240.84;;;21.67;83.75
44992;BME280;56865;51.618;7.406;2023-04-25T03:47:42;100246.25;;;21.91;85.30
44992;BME280;56865;51.618;7.406;2023-04-25T03:50:14;100258.28;;;21.95;83.91
44992;BME280;56865;51.618;7.406;2023-04-25T03:52:44;100252.41;;;22.20;86.35
44992;BME280;56865;51.618;7.406;2023-04-25T03:55:16;100253.84;;;21.99;85.18
44992;BME280;56865;51.618;7.406;2023-04-25T03:57:50;100261.59;;;22.32;83.84
44992;BME280;56865;51.618;7.406;2023-04-25T04:00:21;100252.66;;;22.11;84.13
44992;BME280;56865;51.618;7.406;2023-04-25T04:02:52;100261.75;;;21.94;84.63
44992;BME280;56865;51.618;7.406;2023-04-25T04:05:26;100260.47;;;21.78;84.07
44992;BME280;56865;51.618;7.406;2023-04-25T04:07:58;100266.25;;;21.87;83.60
44992;BME280;56865;51.618;7.406;2023-04-25T04:10:30;100263.88;;;22.13;84.03
44992;BME280;56865;51.618;7.406;2023-04-25T04:13:50;100268.00;;;21.87;82.80
44992;BME280;56865;51.618;7.406;2023-04-25T04:30:06;100276.03;;;21.78;81.54
44992;BME280;56865;51.618;7.406;2023-04-25T04:33:37;100282.34;;;22.00;82.53
44992;BME280;56865;51.618;7.406;2023-04-25T06:51:14;100413.25;;;23.52;80.00
44992;BME280;56865;51.618;7.406;2023-04-25T06:53:45;100417.28;;;23.62;79.30
44992;BME280;56865;51.618;7.406;2023-04-25T06:56:15;100423.19;;;23.67;80.75
44992;BME280;56865;51.618;7.406;2023-04-25T06:58:45;100420.81;;;23.88;80.22
44992;BME280;56865;51.618;7.406;2023-04-25T07:01:15;100425.31;;;23.54;80.98
44992;BME280;56865;51.618;7.406;2023-04-25T07:03:45;100429.50;;;23.60;77.46
44992;BME280;56865;51.618;7.406;2023-04-25T07:06:23;100425.34;;;23.53;78.14
44992;BME280;56865;51.618;7.406;2023-04-25T07:08:54;100425.88;;;23.64;78.76
44992;BME280;56865;51.618;7.406;2023-04-25T07:11:24;100434.19;;;23.77;78.42
44992;BME280;56865;51.618;7.406;2023-04-25T07:13:55;100427.19;;;23.51;80.21
44992;BME280;56865;51.618;7.406;2023-04-25T07:16:25;100428.53;;;23.63;78.85
44992;BME280;56865;51.618;7.406;2023-04-25T07:18:55;100426.22;;;23.82;79.39
44992;BME280;56865;51.618;7.406;2023-04-25T07:21:28;100432.97;;;23.88;77.75
44992;BME280;56865;51.618;7.406;2023-04-25T07:24:01;100432.31;;;23.81;78.88
44992;BME280;56865;51.618;7.406;2023-04-25T07:26:31;100433.66;;;23.94;78.41
44992;BME280;56865;51.618;7.406;2023-04-25T07:29:01;100435.56;;;24.16;78.29
44992;BME280;56865;51.618;7.406;2023-04-25T07:31:31;100446.53;;;24.26;79.25
44992;BME280;56865;51.618;7.406;2023-04-25T07:34:01;100441.72;;;24.13;80.26
44992;BME280;56865;51.618;7.406;2023-04-25T07:36:33;100449.75;;;24.32;76.76
44992;BME280;56865;51.618;7.406;2023-04-25T07:39:07;100447.78;;;24.41;79.30
44992;BME280;56865;51.618;7.406;2023-04-25T07:41:37;100454.22;;;24.56;77.46
44992;BME280;56865;51.618;7.406;2023-04-25T07:44:07;100463.50;;;24.64;79.39
44992;BME280;56865;51.618;7.406;2023-04-25T07:46:37;100457.50;;;24.36;77.30
44992;BME280;56865;51.618;7.406;2023-04-25T07:49:07;100460.38;;;24.28;75.53
44992;BME280;56865;51.618;7.406;2023-04-25T07:51:42;100467.59;;;24.45;75.39
44992;BME280;56865;51.618;7.406;2023-04-25T07:54:14;100470.13;;;24.48;73.77
44992;BME280;56865;51.618;7.406;2023-04-25T07:56:44;100466.47;;;24.79;76.46
44992;BME280;56865;51.618;7.406;2023-04-25T07:59:18;100476.91;;;24.52;75.46
44992;BME280;56865;51.618;7.406;2023-04-25T08:01:48;100474.09;;;24.33;74.63
44992;BME280;56865;51.618;7.406;2023-04-25T08:04:18;100475.28;;;24.49;72.97
44992;BME280;56865;51.618;7.406;2023-04-25T08:06:52;100483.03;;;24.51;77.27
44992;BME280;56865;51.618;7.406;2023-04-25T08:09:24;100493.56;;;24.48;73.70
44992;BME280;56865;51.618;7.406;2023-04-25T08:11:55;100492.06;;;24.67;74.42
44992;BME280;56865;51.618;7.406;2023-04-25T08:14:25;100496.00;;;24.79;73.12
44992;BME280;56865;51.618;7.406;2023-04-25T08:16:55;100497.41;;;24.63;74.56
44992;BME280;56865;51.618;7.406;2023-04-25T08:19:27;100499.06;;;24.39;75.73
44992;BME280;56865;51.618;7.406;2023-04-25T08:22:02;100505.00;;;24.71;75.78
44992;BME280;56865;51.618;7.406;2023-04-25T08:24:32;100501.84;;;24.86;74.06
44992;BME280;56865;51.618;7.406;2023-04-25T08:27:04;100510.69;;;24.82;72.71
44992;BME280;56865;51.618;7.406;2023-04-25T08:29:35;100516.69;;;24.84;70.56
44992;BME280;56865;51.618;7.406;2023-04-25T08:32:06;100519.03;;;25.17;75.42
44992;BME280;56865;51.618;7.406;2023-04-25T08:34:36;100529.47;;;25.17;71.30
44992;BME280;56865;51.618;7.406;2023-04-25T08:37:11;100524.28;;;24.92;72.13
44992;BME280;56865;51.618;7.406;2023-04-25T08:39:41;100523.88;;;24.77;66.61
44992;BME280;56865;51.618;7.406;2023-04-25T08:42:11;100520.47;;;24.75;70.35
44992;BME280;56865;51.618;7.406;2023-04-25T08:44:42;100526.97;;;24.62;70.52
44992;BME280;56865;51.618;7.406;2023-04-25T08:47:11;100535.03;;;24.27;72.75
44992;BME280;56865;51.618;7.406;2023-04-25T08:49:42;100541.22;;;24.52;72.95
44992;BME280;56865;51.618;7.406;2023-04-25T08:52:16;100549.78;;;24.55;67.09
44992;BME280;56865;51.618;7.406;2023-04-25T08:54:51;100551.88;;;24.72;68.49
44992;BME280;56865;51.618;7.406;2023-04-25T08:57:22;100547.47;;;24.74;70.90
44992;BME280;56865;51.618;7.406;2023-04-25T08:59:52;100556.63;;;24.58;69.25
44992;BME280;56865;51.618;7.406;2023-04-25T09:02:22;100560.44;;;24.47;70.32
44992;BME280;56865;51.618;7.406;2023-04-25T09:04:54;100562.78;;;24.83;69.50
44992;BME280;56865;51.618;7.406;2023-04-25T09:07:28;100557.56;;;24.83;68.54
44992;BME280;56865;51.618;7.406;2023-04-25T09:09:58;100569.22;;;24.45;66.26
44992;BME280;56865;51.618;7.406;2023-04-25T09:12:30;100573.16;;;24.58;65.07
44992;BME280;56865;51.618;7.406;2023-04-25T09:15:06;100578.84;;;24.43;66.24
44992;BME280;56865;51.618;7.406;2023-04-25T09:17:37;100581.50;;;24.41;69.02
44992;BME280;56865;51.618;7.406;2023-04-25T09:20:10;100582.97;;;23.93;69.34
44992;BME280;56865;51.618;7.406;2023-04-25T09:22:44;100590.81;;;24.22;65.91
44992;BME280;56865;51.618;7.406;2023-04-25T09:25:16;100595.66;;;24.04;71.85
44992;BME280;56865;51.618;7.406;2023-04-25T09:27:49;100591.47;;;24.00;70.58
44992;BME280;56865;51.618;7.406;2023-04-25T09:30:28;100589.31;;;24.41;72.51
44992;BME280;56865;51.618;7.406;2023-04-25T09:33:03;100588.97;;;24.52;69.85
44992;BME280;56865;51.618;7.406;2023-04-25T09:35:37;100590.63;;;24.28;71.48
44992;BME280;56865;51.618;7.406;2023-04-25T09:38:11;100591.72;;;24.76;71.78
44992;BME280;56865;51.618;7.406;2023-04-25T09:40:41;100606.38;;;24.23;70.36
44992;BME280;56865;51.618;7.406;2023-04-25T09:43:18;100588.78;;;25.12;74.41
44992;BME280;56865;51.618;7.406;2023-04-25T09:45:48;100596.81;;;25.06;68.00
44992;BME280;56865;51.618;7.406;2023-04-25T09:48:18;100603.69;;;25.34;71.28
44992;BME280;56865;51.618;7.406;2023-04-25T09:50:59;100603.28;;;25.46;73.24
44992;BME280;56865;51.618;7.406;2023-04-25T09:53:37;100609.19;;;25.75;67.55
44992;BME280;56865;51.618;7.406;2023-04-25T09:56:08;100601.13;;;25.32;65.62
44992;BME280;56865;51.618;7.406;2023-04-25T09:58:38;100606.13;;;25.63;67.93
44992;BME280;56865;51.618;7.406;2023-04-25T10:01:09;100615.72;;;25.38;61.29
44992;BME280;56865;51.618;7.406;2023-04-25T10:03:39;100620.09;;;25.36;60.82
44992;BME280;56865;51.618;7.406;2023-04-25T10:06:11;100619.38;;;25.32;64.32
44992;BME280;56865;51.618;7.406;2023-04-25T10:08:45;100617.22;;;25.45;63.88
44992;BME280;56865;51.618;7.406;2023-04-25T10:11:21;100618.25;;;25.14;64.22
44992;BME280;56865;51.618;7.406;2023-04-25T10:13:54;100622.19;;;25.01;61.65
44992;BME280;56865;51.618;7.406;2023-04-25T10:16:28;100620.50;;;24.99;65.30
44992;BME280;56865;51.618;7.406;2023-04-25T10:18:58;100618.03;;;24.95;63.41
44992;BME280;56865;51.618;7.406;2023-04-25T10:21:28;100625.06;;;25.18;68.18
44992;BME280;56865;51.618;7.406;2023-04-25T10:24:05;100628.47;;;24.95;64.61
44992;BME280;56865;51.618;7.406;2023-04-25T10:26:35;100629.06;;;24.76;61.80
44992;BME280;56865;51.618;7.406;2023-04-25T10:29:05;100630.38;;;24.90;62.65
44992;BME280;56865;51.618;7.406;2023-04-25T10:31:38;100634.97;;;24.81;64.20
44992;BME280;56865;51.618;7.406;2023-04-25T10:34:14;100638.19;;;24.90;66.33
44992;BME280;56865;51.618;7.406;2023-04-25T10:36:48;100639.84;;;24.92;63.92
44992;BME280;56865;51.618;7.406;2023-04-25T10:39:27;100638.84;;;24.70;60.94
44992;BME280;56865;51.618;7.406;2023-04-25T10:41:57;100649.81;;;24.51;67.61
44992;BME280;56865;51.618;7.406;2023-04-25T10:44:27;100658.34;;;24.56;64.44
44992;BME280;56865;51.618;7.406;2023-04-25T10:46:58;100657.09;;;24.40;65.56
44992;BME280;56865;51.618;7.406;2023-04-25T10:49:30;100675.00;;;24.22;63.61
44992;BME280;56865;51.618;7.406;2023-04-25T10:54:51;100672.59;;;23.83;62.92
44992;BME280;56865;51.618;7.406;2023-04-25T10:57:28;100680.00;;;23.98;62.03
44992;BME280;56865;51.618;7.406;2023-04-25T10:59:58;100676.88;;;24.17;63.96
44992;BME280;56865;51.618;7.406;2023-04-25T11:02:31;100675.44;;;24.07;66.04
44992;BME280;56865;51.618;7.406;2023-04-25T11:05:01;100680.84;;;24.00;61.11
44992;BME280;56865;51.618;7.406;2023-04-25T11:07:39;100677.25;;;24.34;65.45
44992;BME280;56865;51.618;7.406;2023-04-25T11:10:29;100670.78;;;24.46;66.16
44992;BME280;56865;51.618;7.406;2023-04-25T11:13:02;100679.13;;;24.29;65.17
44992;BME280;56865;51.618;7.406;2023-04-25T11:15:32;100668.22;;;24.16;65.40
44992;BME280;56865;51.618;7.406;2023-04-25T11:18:02;100669.41;;;24.64;68.11
44992;BME280;56865;51.618;7.406;2023-04-25T11:20:38;100670.06;;;24.98;67.71
44992;BME280;56865;51.618;7.406;2023-04-25T11:23:09;100667.88;;;25.12;68.52
44992;BME280;56865;51.618;7.406;2023-04-25T11:25:41;100675.19;;;25.01;62.66
44992;BME280;56865;51.618;7.406;2023-04-25T11:28:12;100667.03;;;25.12;63.07
44992;BME280;56865;51.618;7.406;2023-04-25T12:22:56;100665.16;;;25.42;63.49
44992;BME280;56865;51.618;7.406;2023-04-25T12:25:36;100684.91;;;25.23;58.41
44992;BME280;56865;51.618;7.406;2023-04-25T12:28:10;100694.28;;;24.75;55.36
44992;BME280;56865;51.618;7.406;2023-04-25T12:30:53;100691.19;;;24.90;56.50
44992;BME280;56865;51.618;7.406;2023-04-25T12:33:24;100702.41;;;24.36;50.96
44992;BME280;56865;51.618;7.406;2023-04-25T12:35:55;100710.56;;;24.23;54.31
44992;BME280;56865;51.618;7.406;2023-04-25T12:38:28;100705.38;;;24.23;52.87
44992;BME280;56865;51.618;7.406;2023-04-25T12:41:00;100708.31;;;24.11;55.31
44992;BME280;56865;51.618;7.406;2023-04-25T12:43:30;100712.69;;;24.10;54.67
44992;BME280;56865;51.618;7.406;2023-04-25T12:46:00;100709.66;;;23.94;53.40
44992;BME280;56865;51.618;7.406;2023-04-25T12:48:30;100719.31;;;23.89;51.99
44992;BME280;56865;51.618;7.406;2023-04-25T12:51:00;100709.34;;;23.72;56.25
44992;BME280;56865;51.618;7.406;2023-04-25T12:53:32;100718.28;;;24.26;56.04
44992;BME280;56865;51.618;7.406;2023-04-25T12:56:04;100720.13;;;24.53;57.27
44992;BME280;56865;51.618;7.406;2023-04-25T12:58:34;100722.25;;;24.70;54.95
44992;BME280;56865;51.618;7.406;2023-04-25T13:01:07;100716.06;;;25.54;63.24
44992;BME280;56865;51.618;7.406;2023-04-25T13:03:38;100720.28;;;25.31;56.73
44992;BME280;56865;51.618;7.406;2023-04-25T13:06:08;100717.34;;;25.93;54.40
44992;BME280;56865;51.618;7.406;2023-04-25T13:08:44;100718.34;;;26.60;60.56
44992;BME280;56865;51.618;7.406;2023-04-25T13:11:15;100711.25;;;26.41;58.75
44992;BME280;56865;51.618;7.406;2023-04-25T13:13:45;100707.28;;;26.77;58.91
44992;BME280;56865;51.618;7.406;2023-04-25T13:16:15;100710.38;;;27.30;60.43
44992;BME280;56865;51.618;7.406;2023-04-25T13:18:47;100705.03;;;27.53;57.83
44992;BME280;56865;51.618;7.406;2023-04-25T13:21:17;100711.13;;;27.11;54.92
44992;BME280;56865;51.618;7.406;2023-04-25T13:23:50;100716.94;;;26.51;54.09
44992;BME280;56865;51.618;7.406;2023-04-25T13:26:20;100713.41;;;25.81;51.41
44992;BME280;56865;51.618;7.406;2023-04-25T13:28:50;100726.41;;;25.04;54.83
44992;BME280;56865;51.618;7.406;2023-04-25T13:31:20;100731.25;;;24.59;56.81
44992;BME280;56865;51.618;7.406;2023-04-25T13:33:49;100728.63;;;24.59;58.40
44992;BME280;56865;51.618;7.406;2023-04-25T13:36:19;100737.19;;;24.03;57.25
44992;BME280;56865;51.618;7.406;2023-04-25T13:38:51;100736.06;;;24.12;58.11
44992;BME280;56865;51.618;7.406;2023-04-25T13:41:22;100739.09;;;23.96;54.50
44992;BME280;56865;51.618;7.406;2023-04-25T13:43:53;100736.69;;;23.87;59.34
44992;BME280;56865;51.618;7.406;2023-04-25T13:46:23;100731.44;;;23.90;57.74
44992;BME280;56865;51.618;7.406;2023-04-25T13:49:10;100739.00;;;24.31;58.41
44992;BME280;56865;51.618;7.406;2023-04-25T13:51:40;100733.06;;;23.94;58.68
44992;BME280;56865;51.618;7.406;2023-04-25T13:54:12;100731.25;;;23.63;56.66
44992;BME280;56865;51.618;7.406;2023-04-25T13:56:43;100734.78;;;23.95;57.38
44992;BME280;56865;51.618;7.406;2023-04-25T13:59:12;100730.13;;;24.07;57.04
44992;BME280;56865;51.618;7.406;2023-04-25T14:01:42;100730.09;;;25.25;59.06
44992;BME280;56865;51.618;7.406;2023-04-25T14:04:12;100733.56;;;25.52;59.84
44992;BME280;56865;51.618;7.406;2023-04-25T14:06:42;100726.81;;;25.95;56.34
44992;BME280;56865;51.618;7.406;2023-04-25T14:09:14;100721.19;;;26.08;59.55
44992;BME280;56865;51.618;7.406;2023-04-25T14:11:44;100727.31;;;26.31;57.05
44992;BME280;56865;51.618;7.406;2023-04-25T14:14:15;100717.88;;;26.03;56.86
44992;BME280;56865;51.618;7.406;2023-04-25T14:16:45;100722.59;;;26.63;55.29
44992;BME280;56865;51.618;7.406;2023-04-25T14:19:15;100717.25;;;27.32;56.52
44992;BME280;56865;51.618;7.406;2023-04-25T14:21:47;100719.94;;;27.72;53.39
44992;BME280;56865;51.618;7.406;2023-04-25T14:24:20;100721.41;;;27.98;52.07
44992;BME280;56865;51.618;7.406;2023-04-25T14:26:49;100721.31;;;28.40;56.27
44992;BME280;56865;51.618;7.406;2023-04-25T14:29:19;100730.16;;;28.56;52.05
44992;BME280;56865;51.618;7.406;2023-04-25T14:31:49;100709.34;;;27.12;50.47
44992;BME280;56865;51.618;7.406;2023-04-25T14:34:20;100715.56;;;26.65;48.53
44992;BME280;56865;51.618;7.406;2023-04-25T14:36:50;100716.63;;;26.37;49.98
44992;BME280;56865;51.618;7.406;2023-04-25T14:39:23;100722.03;;;26.08;50.05
44992;BME280;56865;51.618;7.406;2023-04-25T14:41:53;100747.25;;;25.84;52.09
44992;BME280;56865;51.618;7.406;2023-04-25T14:44:23;100735.31;;;25.25;55.92
44992;BME280;56865;51.618;7.406;2023-04-25T14:46:56;100759.94;;;24.88;55.59
44992;BME280;56865;51.618;7.406;2023-04-25T14:49:26;100758.91;;;24.63;54.97
44992;BME280;56865;51.618;7.406;2023-04-25T14:51:56;100755.91;;;24.77;58.51
44992;BME280;56865;51.618;7.406;2023-04-25T14:54:29;100762.47;;;24.61;60.89
44992;BME280;56865;51.618;7.406;2023-04-25T14:56:58;100757.56;;;24.18;58.89
44992;BME280;56865;51.618;7.406;2023-04-25T14:59:29;100745.44;;;24.17;60.52
44992;BME280;56865;51.618;7.406;2023-04-25T15:01:59;100755.63;;;23.95;61.50
44992;BME280;56865;51.618;7.406;2023-04-25T15:04:29;100750.31;;;23.98;59.40
44992;BME280;56865;51.618;7.406;2023-04-25T15:06:59;100750.31;;;23.98;60.70
44992;BME280;56865;51.618;7.406;2023-04-25T15:09:32;100753.38;;;24.14;60.62
44992;BME280;56865;51.618;7.406;2023-04-25T15:12:01;100753.38;;;25.03;63.57
44992;BME280;56865;51.618;7.406;2023-04-25T15:14:31;100754.72;;;25.16;59.78
44992;BME280;56865;51.618;7.406;2023-04-25T15:17:01;100752.25;;;25.65;61.42
44992;BME280;56865;51.618;7.406;2023-04-25T15:19:34;100749.03;;;26.33;61.76
44992;BME280;56865;51.618;7.406;2023-04-25T15:22:04;100756.44;;;26.67;60.43
44992;BME280;56865;51.618;7.406;2023-04-25T15:24:39;100757.19;;;26.47;55.52
44992;BME280;56865;51.618;7.406;2023-04-25T15:27:18;100756.44;;;25.44;57.01
44992;BME280;56865;51.618;7.406;2023-04-25T15:29:48;100752.06;;;25.18;58.85
44992;BME280;56865;51.618;7.406;2023-04-25T15:32:22;100745.50;;;25.06;58.48
44992;BME280;56865;51.618;7.406;2023-04-25T15:43:08;100767.41;;;24.09;60.94
44992;BME280;56865;51.618;7.406;2023-04-25T15:45:41;100767.88;;;23.57;56.44
44992;BME280;56865;51.618;7.406;2023-04-25T15:48:11;100765.94;;;23.98;56.97
44992;BME280;56865;51.618;7.406;2023-04-25T15:50:43;100771.13;;;24.00;56.03
44992;BME280;56865;51.618;7.406;2023-04-25T15:53:16;100770.06;;;23.73;56.71
44992;BME280;56865;51.618;7.406;2023-04-25T15:55:47;100776.66;;;23.86;57.72
44992;BME280;56865;51.618;7.406;2023-04-25T15:58:20;100774.22;;;23.80;59.22
44992;BME280;56865;51.618;7.406;2023-04-25T16:00:51;100774.03;;;23.86;56.32
44992;BME280;56865;51.618;7.406;2023-04-25T16:03:59;100774.41;;;23.72;57.58
44992;BME280;56865;51.618;7.406;2023-04-25T16:06:58;100769.66;;;23.55;58.96
44992;BME280;56865;51.618;7.406;2023-04-25T16:09:29;100767.66;;;23.65;58.61
44992;BME280;56865;51.618;7.406;2023-04-25T16:12:00;100766.47;;;23.44;57.98
44992;BME280;56865;51.618;7.406;2023-04-25T16:14:34;100776.41;;;23.26;57.59
44992;BME280;56865;51.618;7.406;2023-04-25T16:17:04;100771.16;;;23.28;57.08
44992;BME280;56865;51.618;7.406;2023-04-25T16:19:33;100771.75;;;23.39;56.94
44992;BME280;56865;51.618;7.406;2023-04-25T16:22:03;100776.78;;;23.47;61.98
44992;BME280;56865;51.618;7.406;2023-04-25T16:24:34;100764.78;;;23.41;59.46
44992;BME280;56865;51.618;7.406;2023-04-25T16:27:04;100776.31;;;23.29;62.31
44992;BME280;56865;51.618;7.406;2023-04-25T16:29:39;100777.91;;;23.36;60.87
44992;BME280;56865;51.618;7.406;2023-04-25T16:32:12;100775.03;;;23.47;60.62
44992;BME280;56865;51.618;7.406;2023-04-25T16:34:44;100774.47;;;23.34;60.29
44992;BME280;56865;51.618;7.406;2023-04-25T16:37:13;100775.00;;;23.49;59.60
44992;BME280;56865;51.618;7.406;2023-04-25T16:39:43;100772.94;;;23.62;59.87
44992;BME280;56865;51.618;7.406;2023-04-25T16:42:13;100770.53;;;23.54;58.57
44992;BME280;56865;51.618;7.406;2023-04-25T16:44:46;100772.88;;;23.65;57.78
44992;BME280;56865;51.618;7.406;2023-04-25T16:47:22;100781.97;;;23.47;56.80
44992;BME280;56865;51.618;7.406;2023-04-25T16:49:52;100781.66;;;23.23;59.03
44992;BME280;56865;51.618;7.406;2023-04-25T16:52:22;100775.00;;;23.11;58.33
44992;BME280;56865;51.618;7.406;2023-04-25T16:54:54;100779.19;;;23.18;57.36
44992;BME280;56865;51.618;7.406;2023-04-25T16:57:24;100783.78;;;23.45;57.97
44992;BME280;56865;51.618;7.406;2023-04-25T16:59:56;100777.97;;;23.33;59.01
44992;BME280;56865;51.618;7.406;2023-04-25T17:02:26;100777.44;;;23.19;62.43
44992;BME280;56865;51.618;7.406;2023-04-25T17:04:57;100784.34;;;23.20;57.79
44992;BME280;56865;51.618;7.406;2023-04-25T17:07:29;100782.00;;;23.08;60.90
44992;BME280;56865;51.618;7.406;2023-04-25T18:42:06;100885.34;;;22.04;58.82
44992;BME280;56865;51.618;7.406;2023-04-25T18:44:36;100893.28;;;21.96;57.74
44992;BME280;56865;51.618;7.406;2023-04-25T18:47:15;100904.97;;;21.66;58.65
44992;BME280;56865;51.618;7.406;2023-04-25T18:49:53;100902.13;;;21.83;59.11
44992;BME280;56865;51.618;7.406;2023-04-25T18:57:39;100910.88;;;21.75;59.45
44992;BME280;56865;51.618;7.406;2023-04-25T19:00:10;100915.44;;;21.61;60.33
44992;BME280;56865;51.618;7.406;2023-04-25T19:02:43;100908.84;;;21.34;60.05
44992;BME280;56865;51.618;7.406;2023-04-25T19:05:13;100911.50;;;21.29;62.37
44992;BME280;56865;51.618;7.406;2023-04-25T20:14:44;100974.66;;;20.35;59.38
44992;BME280;56865;51.618;7.406;2023-04-25T20:43:40;100985.28;;;19.99;60.95
44992;BME280;56865;51.618;7.406;2023-04-25T20:46:38;100980.22;;;19.77;61.60
44992;BME280;56865;51.618;7.406;2023-04-25T20:49:42;100976.81;;;19.63;64.73
44992;BME280;56865;51.618;7.406;2023-04-25T21:05:25;100991.69;;;19.11;62.00
44992;BME280;56865;51.618;7.406;2023-04-25T21:08:17;100982.03;;;19.57;63.50
44992;BME280;56865;51.618;7.406;2023-04-25T21:11:04;100983.97;;;19.08;62.39
44992;BME280;56865;51.618;7.406;2023-04-25T21:14:09;100986.59;;;18.68;62.84
44992;BME280;56865;51.618;7.406;2023-04-25T21:26:26;100996.91;;;18.68;64.25
44992;BME280;56865;51.618;7.406;2023-04-25T21:29:21;100991.75;;;18.57;62.98
44992;BME280;56865;51.618;7.406;2023-04-25T21:32:21;100992.56;;;18.17;64.35
44992;BME280;56865;51.618;7.406;2023-04-25T21:35:28;100996.03;;;18.32;65.08
44992;BME280;56865;51.618;7.406;2023-04-25T21:38:49;100997.75;;;18.64;65.61
44992;BME280;56865;51.618;7.406;2023-04-25T21:41:56;100998.63;;;18.64;65.80
44992;BME280;56865;51.618;7.406;2023-04-25T21:45:04;101002.09;;;18.60;65.29
44992;BME280;56865;51.618;7.406;2023-04-25T21:48:11;100999.47;;;18.18;64.26
44992;BME280;56865;51.618;7.406;2023-04-25T21:54:56;101001.22;;;18.44;64.54
44992;BME280;56865;51.618;7.406;2023-04-25T22:04:37;101011.50;;;18.13;67.26
44992;BME280;56865;51.618;7.406;2023-04-25T22:21:10;101021.72;;;17.78;66.83
44992;BME280;56865;51.618;7.406;2023-04-25T22:24:04;101027.72;;;17.86;66.53
44992;BME280;56865;51.618;7.406;2023-04-25T22:26:53;101025.09;;;17.72;66.64
44992;BME280;56865;51.618;7.406;2023-04-25T22:29:30;101021.59;;;17.48;65.46
44992;BME280;56865;51.618;7.406;2023-04-25T22:32:19;101026.63;;;17.22;66.28
44992;BME280;56865;51.618;7.406;2023-04-25T22:35:03;101025.81;;;17.37;68.28
44992;BME280;56865;51.618;7.406;2023-04-25T22:37:54;101022.44;;;17.50;68.88
44992;BME280;56865;51.618;7.406;2023-04-25T22:40:46;101021.56;;;17.42;66.94
44992;BME280;56865;51.618;7.406;2023-04-25T22:46:30;101040.50;;;17.50;67.76
44992;BME280;56865;51.618;7.406;2023-04-25T22:49:24;101033.63;;;17.49;69.39
44992;BME280;56865;51.618;7.406;2023-04-25T22:52:10;101033.16;;;16.78;68.73
44992;BME280;56865;51.618;7.406;2023-04-25T22:57:58;101042.19;;;17.45;71.41
44992;BME280;56865;51.618;7.406;2023-04-25T23:00:44;101042.00;;;17.10;71.48
44992;BME280;56865;51.618;7.406;2023-04-25T23:03:39;101057.28;;;16.88;71.01
44992;BME280;56865;51.618;7.406;2023-04-25T23:06:28;101046.84;;;16.72;71.69
44992;BME280;56865;51.618;7.406;2023-04-25T23:09:05;101052.88;;;16.78;71.37
44992;BME280;56865;51.618;7.406;2023-04-25T23:11:53;101052.75;;;16.62;71.23
44992;BME280;56865;51.618;7.406;2023-04-25T23:14:32;101045.44;;;17.12;70.53
44992;BME280;56865;51.618;7.406;2023-04-25T23:17:09;101049.44;;;16.76;71.07
44992;BME280;56865;51.618;7.406;2023-04-25T23:19:43;101059.16;;;17.06;71.88
44992;BME280;56865;51.618;7.406;2023-04-25T23:22:21;101054.88;;;17.13;70.37
44992;BME280;56865;51.618;7.406;2023-04-25T23:24:55;101061.81;;;17.20;71.03
44992;BME280;56865;51.618;7.406;2023-04-25T23:27:26;101060.06;;;17.17;69.99
44992;BME280;56865;51.618;7.406;2023-04-25T23:30:06;101072.88;;;17.05;71.56
44992;BME280;56865;51.618;7.406;2023-04-25T23:32:48;101064.44;;;17.25;72.42
44992;BME280;56865;51.618;7.406;2023-04-25T23:35:32;101063.53;;;17.26;71.72
44992;BME280;56865;51.618;7.406;2023-04-25T23:38:35;101066.16;;;17.30;74.17
44992;BME280;56865;51.618;7.406;2023-04-25T23:41:10;101066.34;;;17.64;70.78
44992;BME280;56865;51.618;7.406;2023-04-25T23:44:18;101068.03;;;17.58;70.77
44992;BME280;56865;51.618;7.406;2023-04-25T23:53:41;101062.66;;;17.20;72.67
44992;BME280;56865;51.618;7.406;2023-04-25T23:57:08;101075.50;;;17.11;71.89
